Time;durP1;ratioP1;P1;durP2;ratioP2;P2;SDS_P1;SDS_P2;PMS_P1;PMS_P2;Temp;Humidity;BMP_temperature;BMP_pressure;BME280_temperature;BME280_humidity;BME280_pressure;Samples;Min_cycle;Max_cycle;Signal;HPM_P1;HPM_P2
2023/07/25 00:02:12;;;;;;;13.40;8.40;;;;;;;;;;5100618;28;20046;-63
2023/07/25 00:04:37;;;;;;;14.13;9.47;;;;;;;;;;5111982;28;20261;-63
2023/07/25 00:07:02;;;;;;;9.10;8.23;;;;;;;;;;5101028;28;20369;-64
2023/07/25 00:09:28;;;;;;;10.48;9.50;;;;;;;;;;5099219;28;20317;-63
2023/07/25 00:11:53;;;;;;;12.55;9.65;;;;;;;;;;5107017;28;20069;-64
2023/07/25 00:14:18;;;;;;;9.95;8.95;;;;;;;;;;5110866;28;20073;-64
2023/07/25 00:16:43;;;;;;;10.18;9.05;;;;;;;;;;5109364;28;20020;-63
2023/07/25 00:19:09;;;;;;;12.40;9.32;;;;;;;;;;5110973;28;20059;-63
2023/07/25 00:21:34;;;;;;;14.60;9.32;;;;;;;;;;5106400;28;20048;-63
2023/07/25 00:23:59;;;;;;;11.50;8.40;;;;;;;;;;5101558;28;20412;-63
2023/07/25 00:26:24;;;;;;;10.35;9.25;;;;;;;;;;5097705;28;20015;-63
2023/07/25 00:28:50;;;;;;;10.77;8.60;;;;;;;;;;5111102;28;20475;-63
2023/07/25 00:31:15;;;;;;;13.23;8.88;;;;;;;;;;5111095;28;20680;-63
2023/07/25 00:33:40;;;;;;;10.70;9.60;;;;;;;;;;5111598;28;20019;-63
2023/07/25 00:36:05;;;;;;;10.32;9.23;;;;;;;;;;5107692;28;20562;-63
2023/07/25 00:38:31;;;;;;;12.45;9.65;;;;;;;;;;5096090;28;20036;-63
2023/07/25 00:40:56;;;;;;;10.73;9.63;;;;;;;;;;5107726;28;20039;-63
2023/07/25 00:43:21;;;;;;;9.50;8.38;;;;;;;;;;5111450;28;20019;-63
2023/07/25 00:45:47;;;;;;;13.13;9.70;;;;;;;;;;5110957;28;20016;-63
2023/07/25 00:48:12;;;;;;;14.70;9.00;;;;;;;;;;5110898;28;20031;-63
2023/07/25 00:50:37;;;;;;;11.05;9.15;;;;;;;;;;5110006;28;20050;-63
2023/07/25 00:53:04;;;;;;;12.05;9.90;;;;;;;;;;5111185;28;20042;-63
2023/07/25 00:55:30;;;;;;;12.75;9.45;;;;;;;;;;5110289;28;20024;-63
2023/07/25 00:57:55;;;;;;;10.75;9.55;;;;;;;;;;5112676;28;20034;-63
2023/07/25 01:00:20;;;;;;;12.95;9.13;;;;;;;;;;5114270;28;20020;-63
2023/07/25 01:02:46;;;;;;;9.05;8.20;;;;;;;;;;5105189;28;20032;-63
2023/07/25 01:05:11;;;;;;;11.32;9.75;;;;;;;;;;5097702;28;20073;-63
2023/07/25 01:07:38;;;;;;;13.15;10.07;;;;;;;;;;5094572;28;20032;-63
2023/07/25 01:10:04;;;;;;;15.95;9.80;;;;;;;;;;5094532;28;20030;-63
2023/07/25 01:12:29;;;;;;;11.70;10.05;;;;;;;;;;5100327;28;20099;-63
2023/07/25 01:14:54;;;;;;;10.43;8.60;;;;;;;;;;5114387;28;20030;-63
2023/07/25 01:17:21;;;;;;;12.10;7.88;;;;;;;;;;5114609;28;20072;-64
2023/07/25 01:19:47;;;;;;;13.55;9.13;;;;;;;;;;5101664;28;20028;-63
2023/07/25 01:22:12;;;;;;;10.90;8.60;;;;;;;;;;5104196;28;20115;-63
2023/07/25 01:24:42;;;;;;;10.35;8.77;;;;;;;;;;5095343;28;20078;-63
2023/07/25 01:27:08;;;;;;;13.00;8.95;;;;;;;;;;5104570;28;20063;-63
2023/07/25 01:29:33;;;;;;;11.00;8.82;;;;;;;;;;5113207;28;20028;-63
2023/07/25 01:31:58;;;;;;;12.43;8.90;;;;;;;;;;5086670;28;20113;-64
2023/07/25 01:34:23;;;;;;;9.73;8.77;;;;;;;;;;5109945;28;20872;-63
2023/07/25 01:36:49;;;;;;;9.60;8.00;;;;;;;;;;5113710;28;20030;-63
2023/07/25 01:39:14;;;;;;;11.50;8.30;;;;;;;;;;5113565;28;20023;-63
2023/07/25 01:41:40;;;;;;;9.90;8.47;;;;;;;;;;5105172;28;20092;-63
2023/07/25 01:44:05;;;;;;;9.35;8.05;;;;;;;;;;5112777;28;20351;-64
2023/07/25 01:46:30;;;;;;;12.48;9.00;;;;;;;;;;5114047;28;20031;-63
2023/07/25 01:48:55;;;;;;;9.83;8.13;;;;;;;;;;5113503;28;20035;-63
2023/07/25 01:51:21;;;;;;;9.60;8.43;;;;;;;;;;5114044;28;20316;-63
2023/07/25 01:53:46;;;;;;;9.80;8.15;;;;;;;;;;5113443;28;20015;-63
2023/07/25 01:56:11;;;;;;;11.33;8.57;;;;;;;;;;5114085;28;20031;-63
2023/07/25 01:58:36;;;;;;;11.82;8.70;;;;;;;;;;5113177;28;20767;-64
2023/07/25 02:01:02;;;;;;;9.10;8.20;;;;;;;;;;5105051;28;20031;-64
2023/07/25 02:03:27;;;;;;;12.38;8.65;;;;;;;;;;5108428;28;20301;-63
2023/07/25 02:05:52;;;;;;;15.35;9.02;;;;;;;;;;5095395;28;20020;-63
2023/07/25 02:08:18;;;;;;;9.82;8.82;;;;;;;;;;5100247;28;20020;-63
2023/07/25 02:10:43;;;;;;;11.00;9.20;;;;;;;;;;5103295;28;20149;-63
2023/07/25 02:13:08;;;;;;;10.27;9.00;;;;;;;;;;5093497;28;20783;-63
2023/07/25 02:15:34;;;;;;;13.97;8.37;;;;;;;;;;5093802;28;20016;-63
2023/07/25 02:17:59;;;;;;;13.35;9.45;;;;;;;;;;5105573;28;20265;-64
2023/07/25 02:20:26;;;;;;;10.10;9.05;;;;;;;;;;5095776;28;20016;-67
2023/07/25 02:22:52;;;;;;;11.13;9.32;;;;;;;;;;5104704;28;20103;-64
2023/07/25 02:25:17;;;;;;;12.60;10.52;;;;;;;;;;5108162;28;20043;-64
2023/07/25 02:27:42;;;;;;;11.20;8.90;;;;;;;;;;5108110;28;20103;-64
2023/07/25 02:30:08;;;;;;;12.03;8.57;;;;;;;;;;5106215;28;20295;-64
2023/07/25 02:32:33;;;;;;;10.05;9.02;;;;;;;;;;5113278;28;20277;-64
2023/07/25 02:34:58;;;;;;;10.07;8.55;;;;;;;;;;5110638;28;20055;-64
2023/07/25 02:37:24;;;;;;;12.00;9.13;;;;;;;;;;5099500;28;20584;-64
2023/07/25 02:39:49;;;;;;;11.55;8.55;;;;;;;;;;5106333;28;20077;-63
2023/07/25 02:42:14;;;;;;;11.85;9.57;;;;;;;;;;5093034;28;20019;-63
2023/07/25 02:44:39;;;;;;;11.90;9.50;;;;;;;;;;5099452;28;20122;-64
2023/07/25 02:47:05;;;;;;;10.25;9.25;;;;;;;;;;5112551;28;20779;-64
2023/07/25 02:49:30;;;;;;;9.85;8.15;;;;;;;;;;5112596;28;20058;-64
2023/07/25 02:51:55;;;;;;;11.93;9.27;;;;;;;;;;5098445;28;20066;-64
2023/07/25 02:54:21;;;;;;;10.90;9.15;;;;;;;;;;5097037;28;20264;-64
2023/07/25 02:56:46;;;;;;;15.73;9.52;;;;;;;;;;5106161;28;20016;-64
2023/07/25 02:59:11;;;;;;;12.55;8.38;;;;;;;;;;5105984;28;20024;-64
2023/07/25 03:01:36;;;;;;;10.55;8.65;;;;;;;;;;5105508;28;20127;-64
2023/07/25 03:04:02;;;;;;;9.75;7.82;;;;;;;;;;5100233;28;20036;-64
2023/07/25 03:06:27;;;;;;;11.13;8.02;;;;;;;;;;5112574;28;20493;-64
2023/07/25 03:08:52;;;;;;;10.38;8.30;;;;;;;;;;5100137;28;20032;-64
2023/07/25 03:11:17;;;;;;;10.70;8.75;;;;;;;;;;5092790;28;20013;-64
2023/07/25 03:13:43;;;;;;;10.48;9.07;;;;;;;;;;5097579;28;20043;-64
2023/07/25 03:16:08;;;;;;;11.55;9.23;;;;;;;;;;5112906;28;20077;-64
2023/07/25 03:18:33;;;;;;;14.45;9.43;;;;;;;;;;5098443;28;20049;-64
2023/07/25 03:20:58;;;;;;;10.50;9.32;;;;;;;;;;5111488;28;20529;-64
2023/07/25 03:23:24;;;;;;;13.88;9.57;;;;;;;;;;5105546;28;20024;-64
2023/07/25 03:25:49;;;;;;;10.95;9.27;;;;;;;;;;5112457;28;20023;-64
2023/07/25 03:28:14;;;;;;;10.88;9.70;;;;;;;;;;5049836;28;20020;-64
2023/07/25 03:30:39;;;;;;;14.40;10.60;;;;;;;;;;5056518;28;20831;-64
2023/07/25 03:33:05;;;;;;;10.90;9.77;;;;;;;;;;5048422;28;20031;-64
2023/07/25 03:35:30;;;;;;;14.23;9.75;;;;;;;;;;5045774;28;20870;-64
2023/07/25 03:37:55;;;;;;;11.80;9.27;;;;;;;;;;5053058;28;20034;-64
2023/07/25 03:40:20;;;;;;;13.77;10.07;;;;;;;;;;5059723;28;20355;-64
2023/07/25 03:42:46;;;;;;;10.48;9.38;;;;;;;;;;5057093;28;20274;-64
2023/07/25 03:45:11;;;;;;;15.20;9.83;;;;;;;;;;5046460;28;20872;-64
2023/07/25 03:47:36;;;;;;;12.65;9.43;;;;;;;;;;5048147;28;21181;-64
2023/07/25 03:50:01;;;;;;;11.57;10.35;;;;;;;;;;5066160;28;20055;-65
2023/07/25 03:52:27;;;;;;;13.73;10.75;;;;;;;;;;5093738;28;20051;-64
2023/07/25 03:54:52;;;;;;;12.38;10.30;;;;;;;;;;5093398;28;20031;-64
2023/07/25 03:57:17;;;;;;;12.25;10.95;;;;;;;;;;5093453;28;20024;-64
2023/07/25 03:59:42;;;;;;;13.05;10.68;;;;;;;;;;5095172;28;20073;-64
2023/07/25 04:02:08;;;;;;;11.70;9.32;;;;;;;;;;5093536;28;20435;-64
2023/07/25 04:04:34;;;;;;;12.50;10.02;;;;;;;;;;5095644;28;20028;-64
2023/07/25 04:06:59;;;;;;;11.57;9.13;;;;;;;;;;5093796;28;20024;-64
2023/07/25 04:09:24;;;;;;;16.90;9.52;;;;;;;;;;5094184;28;20353;-64
2023/07/25 04:11:49;;;;;;;14.03;10.70;;;;;;;;;;5102557;28;20020;-64
2023/07/25 04:14:14;;;;;;;15.70;11.55;;;;;;;;;;5101963;28;20809;-65
2023/07/25 04:16:40;;;;;;;18.80;12.97;;;;;;;;;;5099345;28;20031;-64
2023/07/25 04:19:05;;;;;;;12.65;11.30;;;;;;;;;;5100976;28;20270;-66
2023/07/25 04:21:30;;;;;;;13.80;11.80;;;;;;;;;;5108520;28;20027;-64
2023/07/25 04:23:55;;;;;;;16.13;12.57;;;;;;;;;;5111512;28;20273;-64
2023/07/25 04:26:21;;;;;;;19.05;12.98;;;;;;;;;;5099594;28;20032;-64
2023/07/25 04:28:48;;;;;;;13.45;12.05;;;;;;;;;;5110698;28;20066;-64
2023/07/25 04:31:13;;;;;;;16.30;13.40;;;;;;;;;;5109240;28;20019;-64
2023/07/25 04:33:38;;;;;;;17.70;13.48;;;;;;;;;;5111189;28;20073;-64
2023/07/25 04:36:04;;;;;;;15.98;12.55;;;;;;;;;;5107568;28;20431;-63
2023/07/25 04:38:29;;;;;;;16.02;13.05;;;;;;;;;;5114141;28;20020;-63
2023/07/25 04:40:56;;;;;;;14.87;12.30;;;;;;;;;;5112352;28;20073;-63
2023/07/25 04:43:21;;;;;;;14.05;12.65;;;;;;;;;;5107341;28;20289;-64
2023/07/25 04:45:47;;;;;;;12.95;11.63;;;;;;;;;;5108983;28;20469;-64
2023/07/25 04:48:12;;;;;;;15.82;12.98;;;;;;;;;;5114013;28;20061;-63
2023/07/25 04:50:37;;;;;;;12.73;11.43;;;;;;;;;;5113835;28;20526;-64
2023/07/25 04:53:03;;;;;;;15.98;13.23;;;;;;;;;;5109641;28;20685;-63
2023/07/25 04:55:28;;;;;;;17.55;12.85;;;;;;;;;;5110909;28;20035;-63
2023/07/25 04:57:54;;;;;;;12.65;11.35;;;;;;;;;;5108783;28;20374;-64
2023/07/25 05:00:19;;;;;;;15.27;12.15;;;;;;;;;;5107268;28;20035;-64
2023/07/25 05:02:44;;;;;;;14.52;12.55;;;;;;;;;;5107126;28;20020;-64
2023/07/25 05:05:10;;;;;;;13.15;10.77;;;;;;;;;;5109910;28;20098;-64
2023/07/25 05:07:35;;;;;;;15.68;11.77;;;;;;;;;;5107220;28;20034;-64
2023/07/25 05:10:00;;;;;;;14.85;11.50;;;;;;;;;;5113163;28;20023;-64
2023/07/25 05:12:25;;;;;;;13.02;10.80;;;;;;;;;;5110634;28;20020;-64
2023/07/25 05:14:51;;;;;;;14.70;11.02;;;;;;;;;;5094276;28;20055;-64
2023/07/25 05:17:16;;;;;;;17.00;10.90;;;;;;;;;;5105924;28;20012;-63
2023/07/25 05:19:41;;;;;;;14.27;10.35;;;;;;;;;;5104555;28;20478;-64
2023/07/25 05:22:07;;;;;;;13.23;11.38;;;;;;;;;;5106885;28;20024;-65
2023/07/25 05:24:32;;;;;;;15.85;10.93;;;;;;;;;;5101828;28;20342;-64
2023/07/25 05:26:57;;;;;;;12.52;11.25;;;;;;;;;;5097930;28;20074;-63
2023/07/25 05:29:22;;;;;;;12.88;11.15;;;;;;;;;;5110895;28;20015;-63
2023/07/25 05:31:47;;;;;;;18.73;11.45;;;;;;;;;;5102234;28;20515;-64
2023/07/25 05:34:13;;;;;;;14.53;11.97;;;;;;;;;;5107989;28;20025;-64
2023/07/25 05:36:38;;;;;;;13.63;12.23;;;;;;;;;;5108354;28;20262;-64
2023/07/25 05:39:03;;;;;;;13.75;12.35;;;;;;;;;;5106300;28;20106;-64
2023/07/25 05:41:28;;;;;;;15.90;13.43;;;;;;;;;;5101664;28;20082;-63
2023/07/25 05:43:54;;;;;;;16.35;12.25;;;;;;;;;;5112051;28;20770;-64
2023/07/25 05:46:19;;;;;;;15.07;12.80;;;;;;;;;;5106775;28;20020;-64
2023/07/25 05:48:44;;;;;;;15.30;12.97;;;;;;;;;;5107281;28;20173;-64
2023/07/25 05:51:09;;;;;;;15.63;12.80;;;;;;;;;;5100666;28;20328;-64
2023/07/25 05:53:35;;;;;;;19.77;13.32;;;;;;;;;;5113673;28;20088;-64
2023/07/25 05:56:00;;;;;;;15.05;12.65;;;;;;;;;;5112502;28;20026;-64
2023/07/25 05:58:26;;;;;;;14.60;13.20;;;;;;;;;;5113378;28;20098;-64
2023/07/25 06:00:51;;;;;;;18.30;12.57;;;;;;;;;;5106830;28;20362;-64
2023/07/25 06:03:17;;;;;;;17.37;11.33;;;;;;;;;;5105229;28;20417;-64
2023/07/25 06:05:42;;;;;;;14.20;11.00;;;;;;;;;;5100437;28;20270;-64
2023/07/25 06:08:08;;;;;;;15.32;10.48;;;;;;;;;;5108811;28;20023;-64
2023/07/25 06:10:34;;;;;;;16.10;9.57;;;;;;;;;;5094848;28;20024;-64
2023/07/25 06:12:59;;;;;;;11.15;9.77;;;;;;;;;;5092995;28;20101;-64
2023/07/25 06:15:24;;;;;;;11.32;9.63;;;;;;;;;;5112171;28;20032;-64
2023/07/25 06:17:50;;;;;;;12.97;7.83;;;;;;;;;;5113286;28;20030;-64
2023/07/25 06:20:16;;;;;;;12.95;9.02;;;;;;;;;;5106630;28;20806;-64
2023/07/25 06:22:41;;;;;;;9.88;8.05;;;;;;;;;;5106164;28;20099;-64
2023/07/25 06:25:07;;;;;;;11.30;8.85;;;;;;;;;;5093544;28;20027;-64
2023/07/25 06:27:33;;;;;;;9.25;7.22;;;;;;;;;;5104941;28;20382;-65
2023/07/25 06:29:58;;;;;;;12.70;7.45;;;;;;;;;;5112517;28;20023;-64
2023/07/25 06:32:23;;;;;;;10.10;6.60;;;;;;;;;;5113002;28;20027;-64
2023/07/25 06:34:48;;;;;;;13.60;7.60;;;;;;;;;;5095577;28;20058;-64
2023/07/25 06:37:14;;;;;;;15.63;6.93;;;;;;;;;;5101558;28;20471;-64
2023/07/25 06:39:39;;;;;;;9.95;7.78;;;;;;;;;;5102459;28;20350;-64
2023/07/25 06:42:06;;;;;;;10.13;6.68;;;;;;;;;;5110705;28;20091;-64
2023/07/25 06:44:32;;;;;;;13.45;8.00;;;;;;;;;;5111752;28;20727;-64
2023/07/25 06:46:57;;;;;;;14.13;7.88;;;;;;;;;;5112924;28;20034;-64
2023/07/25 06:49:22;;;;;;;16.75;7.28;;;;;;;;;;5110513;28;20016;-65
2023/07/25 06:51:48;;;;;;;11.50;7.10;;;;;;;;;;5106557;28;20055;-64
2023/07/25 06:54:13;;;;;;;9.10;6.85;;;;;;;;;;5099530;28;20790;-64
2023/07/25 06:56:39;;;;;;;9.82;6.45;;;;;;;;;;5112312;28;20062;-64
2023/07/25 06:59:04;;;;;;;12.07;6.80;;;;;;;;;;5105654;28;20428;-64
2023/07/25 07:01:29;;;;;;;9.67;5.50;;;;;;;;;;5093860;28;20032;-64
2023/07/25 07:03:55;;;;;;;11.73;4.78;;;;;;;;;;5092919;28;20373;-65
2023/07/25 07:06:20;;;;;;;8.98;4.47;;;;;;;;;;5092351;28;20085;-65
2023/07/25 07:08:45;;;;;;;9.90;4.47;;;;;;;;;;5105430;28;20024;-65
2023/07/25 07:11:10;;;;;;;7.73;4.87;;;;;;;;;;5092472;28;20032;-65
2023/07/25 07:13:36;;;;;;;9.90;4.97;;;;;;;;;;5073925;28;20286;-64
2023/07/25 07:16:01;;;;;;;9.43;5.23;;;;;;;;;;5100402;28;20421;-64
2023/07/25 07:18:26;;;;;;;8.97;4.33;;;;;;;;;;5108795;28;20309;-64
2023/07/25 07:20:51;;;;;;;9.95;4.05;;;;;;;;;;5111341;28;20786;-64
2023/07/25 07:23:17;;;;;;;10.38;3.70;;;;;;;;;;5098737;28;20054;-65
2023/07/25 07:25:43;;;;;;;5.03;3.55;;;;;;;;;;5109534;28;20031;-64
2023/07/25 07:28:08;;;;;;;8.68;4.43;;;;;;;;;;5110828;28;20120;-64
2023/07/25 07:30:33;;;;;;;12.50;3.75;;;;;;;;;;5102973;28;20453;-64
2023/07/25 07:32:59;;;;;;;4.83;2.80;;;;;;;;;;5098797;28;20031;-64
2023/07/25 07:35:24;;;;;;;5.35;2.78;;;;;;;;;;5095585;28;20825;-64
2023/07/25 07:37:50;;;;;;;8.57;3.70;;;;;;;;;;5098882;28;20043;-64
2023/07/25 07:40:15;;;;;;;11.90;3.58;;;;;;;;;;5098546;28;20114;-64
2023/07/25 07:42:40;;;;;;;7.53;2.72;;;;;;;;;;5106283;28;20362;-65
2023/07/25 07:45:06;;;;;;;6.57;3.20;;;;;;;;;;5107127;28;20058;-64
2023/07/25 07:47:31;;;;;;;6.70;2.95;;;;;;;;;;5106702;28;20381;-64
2023/07/25 07:49:56;;;;;;;6.18;3.08;;;;;;;;;;5106946;28;20023;-64
2023/07/25 07:52:22;;;;;;;8.55;3.47;;;;;;;;;;5103680;28;20051;-64
2023/07/25 07:54:47;;;;;;;6.75;3.25;;;;;;;;;;5110076;28;20019;-64
2023/07/25 07:57:12;;;;;;;7.57;2.17;;;;;;;;;;5099510;28;20031;-64
2023/07/25 07:59:37;;;;;;;8.90;2.83;;;;;;;;;;5093120;28;20940;-64
2023/07/25 08:02:03;;;;;;;6.83;2.20;;;;;;;;;;5103570;28;20366;-64
2023/07/25 08:04:28;;;;;;;5.07;2.17;;;;;;;;;;5104295;28;20338;-64
2023/07/25 08:06:53;;;;;;;11.73;2.00;;;;;;;;;;5103254;28;20036;-64
2023/07/25 08:09:18;;;;;;;5.27;1.80;;;;;;;;;;5099323;28;20727;-64
2023/07/25 08:11:44;;;;;;;5.53;2.35;;;;;;;;;;5090912;28;20736;-64
2023/07/25 08:14:09;;;;;;;6.30;2.17;;;;;;;;;;5104252;28;20027;-64
2023/07/25 08:16:35;;;;;;;5.50;2.33;;;;;;;;;;5091975;28;20360;-64
2023/07/25 08:19:00;;;;;;;8.73;2.70;;;;;;;;;;5091937;28;20378;-64
2023/07/25 08:21:25;;;;;;;6.37;2.23;;;;;;;;;;5091340;28;20270;-64
2023/07/25 08:23:50;;;;;;;4.65;1.90;;;;;;;;;;5101373;28;20278;-64
2023/07/25 08:26:16;;;;;;;4.87;2.13;;;;;;;;;;5090719;28;20073;-66
2023/07/25 08:28:41;;;;;;;8.45;2.50;;;;;;;;;;5107981;28;20772;-65
2023/07/25 08:31:06;;;;;;;6.20;1.85;;;;;;;;;;5097535;28;20032;-65
2023/07/25 08:33:32;;;;;;;6.03;2.25;;;;;;;;;;5103878;28;20035;-67
2023/07/25 08:35:57;;;;;;;6.22;1.70;;;;;;;;;;5090776;28;20028;-65
2023/07/25 08:38:22;;;;;;;4.78;2.33;;;;;;;;;;5098598;28;20051;-65
2023/07/25 08:40:54;;;;;;;8.13;2.63;;;;;;;;;;5104893;28;20084;-65
2023/07/25 08:43:21;;;;;;;5.93;2.33;;;;;;;;;;5105967;28;20457;-65
2023/07/25 08:45:47;;;;;;;5.85;2.15;;;;;;;;;;5107391;28;20076;-66
2023/07/25 08:48:14;;;;;;;6.90;2.10;;;;;;;;;;5104368;28;20028;-65
2023/07/25 08:50:42;;;;;;;8.60;2.67;;;;;;;;;;5106192;28;20474;-66
2023/07/25 08:53:10;;;;;;;4.70;2.00;;;;;;;;;;5107818;28;20035;-63
2023/07/25 08:55:35;;;;;;;8.77;2.00;;;;;;;;;;5103593;28;20069;-65
2023/07/25 08:58:01;;;;;;;6.82;1.90;;;;;;;;;;5102901;28;20027;-65
2023/07/25 09:00:27;;;;;;;8.80;2.72;;;;;;;;;;5101946;28;20028;-66
2023/07/25 09:02:53;;;;;;;5.25;2.33;;;;;;;;;;5101999;28;20050;-65
2023/07/25 09:05:18;;;;;;;6.13;2.58;;;;;;;;;;5104337;28;20015;-65
2023/07/25 09:07:44;;;;;;;5.82;2.53;;;;;;;;;;5106846;28;20040;-65
2023/07/25 09:10:10;;;;;;;6.75;2.15;;;;;;;;;;5099150;28;20031;-64
2023/07/25 09:12:35;;;;;;;5.38;2.30;;;;;;;;;;5096736;28;20062;-66
2023/07/25 09:15:00;;;;;;;7.47;2.38;;;;;;;;;;5096755;28;20108;-64
2023/07/25 09:17:25;;;;;;;6.57;2.80;;;;;;;;;;5107297;28;20070;-64
2023/07/25 09:19:51;;;;;;;5.18;2.47;;;;;;;;;;5102754;28;20032;-66
2023/07/25 09:22:29;;;;;;;7.72;2.58;;;;;;;;;;5108096;28;20016;-65
2023/07/25 09:24:54;;;;;;;4.93;2.90;;;;;;;;;;5111303;28;20051;-65
2023/07/25 09:27:19;;;;;;;7.53;2.88;;;;;;;;;;5109113;28;20052;-65
2023/07/25 09:29:49;;;;;;;7.13;2.83;;;;;;;;;;5100921;28;20028;-65
2023/07/25 09:32:25;;;;;;;6.80;3.25;;;;;;;;;;5106888;28;20012;-65
2023/07/25 09:35:01;;;;;;;10.00;3.13;;;;;;;;;;5105957;28;20026;-65
2023/07/25 09:37:30;;;;;;;7.30;2.95;;;;;;;;;;5100649;28;20032;-65
2023/07/25 09:39:55;;;;;;;7.47;3.03;;;;;;;;;;5105248;28;20023;-65
2023/07/25 09:42:22;;;;;;;9.90;2.83;;;;;;;;;;5103426;28;20061;-65
2023/07/25 09:44:47;;;;;;;7.97;2.72;;;;;;;;;;5104531;28;20023;-65
2023/07/25 09:47:13;;;;;;;5.40;2.60;;;;;;;;;;5104480;28;20036;-65
2023/07/25 09:49:46;;;;;;;7.28;2.95;;;;;;;;;;5101212;28;20039;-65
2023/07/25 09:52:11;;;;;;;7.30;3.28;;;;;;;;;;5111874;28;20027;-66
2023/07/25 09:54:36;;;;;;;7.03;2.80;;;;;;;;;;5102500;28;20492;-66
2023/07/25 09:57:02;;;;;;;6.20;2.85;;;;;;;;;;5112923;28;20304;-66
2023/07/25 09:59:27;;;;;;;5.88;2.75;;;;;;;;;;5109121;28;20091;-66
2023/07/25 10:01:53;;;;;;;10.95;3.25;;;;;;;;;;5103603;28;20465;-66
2023/07/25 10:04:19;;;;;;;5.95;2.83;;;;;;;;;;5105022;28;20024;-66
2023/07/25 10:06:45;;;;;;;7.32;3.50;;;;;;;;;;5104187;28;20082;-65
2023/07/25 10:09:11;;;;;;;7.38;3.47;;;;;;;;;;5102868;28;20466;-65
2023/07/25 10:11:36;;;;;;;7.75;3.25;;;;;;;;;;5108022;28;20031;-67
2023/07/25 10:14:02;;;;;;;9.35;2.60;;;;;;;;;;5107599;28;20579;-66
2023/07/25 10:16:27;;;;;;;11.40;3.80;;;;;;;;;;5107229;28;20027;-66
2023/07/25 10:18:55;;;;;;;5.57;2.97;;;;;;;;;;5109466;28;20085;-66
2023/07/25 10:21:24;;;;;;;7.45;3.17;;;;;;;;;;5106632;28;20035;-66
2023/07/25 10:23:52;;;;;;;7.78;2.65;;;;;;;;;;5100245;28;20406;-65
2023/07/25 10:26:18;;;;;;;7.95;2.90;;;;;;;;;;5110417;28;20024;-66
2023/07/25 10:28:43;;;;;;;6.25;3.08;;;;;;;;;;5108456;28;20102;-68
2023/07/25 10:31:21;;;;;;;6.83;3.57;;;;;;;;;;5109372;28;20015;-67
2023/07/25 10:33:50;;;;;;;6.38;3.03;;;;;;;;;;5099632;28;20309;-66
2023/07/25 10:36:25;;;;;;;7.13;2.60;;;;;;;;;;5098221;28;20122;-65
2023/07/25 10:38:50;;;;;;;9.45;3.75;;;;;;;;;;5106836;28;20036;-65
2023/07/25 10:41:16;;;;;;;7.15;2.70;;;;;;;;;;5099221;28;20018;-65
2023/07/25 10:43:44;;;;;;;5.90;2.03;;;;;;;;;;5101747;28;20024;-65
2023/07/25 10:46:13;;;;;;;7.40;2.60;;;;;;;;;;5098183;28;20020;-65
2023/07/25 10:48:45;;;;;;;15.43;2.80;;;;;;;;;;5099280;28;20036;-65
2023/07/25 10:51:12;;;;;;;5.90;2.30;;;;;;;;;;5100235;28;20080;-65
2023/07/25 10:53:38;;;;;;;5.30;2.67;;;;;;;;;;5101322;28;20130;-65
2023/07/25 10:56:03;;;;;;;6.28;2.45;;;;;;;;;;5100414;28;20489;-65
2023/07/25 10:58:32;;;;;;;5.50;2.37;;;;;;;;;;5099090;28;20497;-65
2023/07/25 11:00:58;;;;;;;5.88;2.50;;;;;;;;;;5100224;28;20285;-66
2023/07/25 11:03:31;;;;;;;6.10;2.53;;;;;;;;;;5108230;28;20027;-65
2023/07/25 11:06:08;;;;;;;3.17;1.83;;;;;;;;;;5092838;28;20551;-65
2023/07/25 11:08:34;;;;;;;10.05;2.78;;;;;;;;;;5094478;28;20451;-65
2023/07/25 11:11:03;;;;;;;5.90;2.78;;;;;;;;;;5110840;28;20028;-65
2023/07/25 11:13:29;;;;;;;7.30;2.70;;;;;;;;;;5109916;28;20038;-65
2023/07/25 11:15:55;;;;;;;4.72;2.72;;;;;;;;;;5094533;28;20529;-66
2023/07/25 11:18:20;;;;;;;5.88;2.17;;;;;;;;;;5104488;28;20032;-65
2023/07/25 11:20:57;;;;;;;5.53;2.50;;;;;;;;;;5105230;28;20493;-65
2023/07/25 11:23:22;;;;;;;6.05;2.55;;;;;;;;;;5107789;28;20096;-65
2023/07/25 11:25:57;;;;;;;4.57;2.37;;;;;;;;;;5105495;28;20016;-65
2023/07/25 11:28:23;;;;;;;7.93;2.47;;;;;;;;;;5108726;28;20728;-65
2023/07/25 11:30:48;;;;;;;6.68;2.65;;;;;;;;;;5102049;28;20103;-65
2023/07/25 11:33:13;;;;;;;8.02;2.53;;;;;;;;;;5106726;28;20539;-65
2023/07/25 11:35:39;;;;;;;6.85;2.17;;;;;;;;;;5103481;28;20024;-66
2023/07/25 11:38:04;;;;;;;4.82;2.13;;;;;;;;;;5111584;28;20023;-66
2023/07/25 11:40:30;;;;;;;4.63;1.85;;;;;;;;;;5111100;28;20024;-65
2023/07/25 11:42:55;;;;;;;7.93;2.35;;;;;;;;;;5105336;28;20047;-65
2023/07/25 11:45:22;;;;;;;7.57;2.00;;;;;;;;;;5092487;28;20028;-65
2023/07/25 11:47:48;;;;;;;4.75;1.73;;;;;;;;;;5093069;28;20032;-65
2023/07/25 11:50:14;;;;;;;4.72;2.10;;;;;;;;;;5098057;28;20024;-65
2023/07/25 11:52:40;;;;;;;3.45;1.77;;;;;;;;;;5094892;28;20020;-66
2023/07/25 11:55:09;;;;;;;6.50;2.63;;;;;;;;;;5095082;28;20046;-66
2023/07/25 11:57:41;;;;;;;6.88;3.00;;;;;;;;;;5097746;28;20508;-65
2023/07/25 12:00:09;;;;;;;5.68;3.08;;;;;;;;;;5104774;28;20100;-64
2023/07/25 12:02:38;;;;;;;7.22;2.97;;;;;;;;;;5099770;28;20020;-65
2023/07/25 12:05:03;;;;;;;10.05;2.83;;;;;;;;;;5100410;28;20028;-66
2023/07/25 12:07:47;;;;;;;5.55;2.70;;;;;;;;;;5068163;28;20536;-65
2023/07/25 12:10:13;;;;;;;7.47;4.22;;;;;;;;;;5091950;28;20047;-67
2023/07/25 12:12:41;;;;;;;9.18;3.72;;;;;;;;;;5101743;28;20032;-66
2023/07/25 12:15:06;;;;;;;5.32;2.58;;;;;;;;;;5106664;28;20455;-68
2023/07/25 12:17:41;;;;;;;4.82;2.33;;;;;;;;;;5100203;28;20031;-66
2023/07/25 12:20:14;;;;;;;6.78;2.60;;;;;;;;;;5107196;28;20358;-65
2023/07/25 12:22:39;;;;;;;5.50;1.95;;;;;;;;;;5103107;28;20035;-67
2023/07/25 12:25:05;;;;;;;4.72;2.70;;;;;;;;;;5107338;28;20106;-67
2023/07/25 12:27:30;;;;;;;6.97;2.58;;;;;;;;;;5101512;28;20032;-67
2023/07/25 12:29:55;;;;;;;5.93;2.45;;;;;;;;;;5110645;28;20026;-65
2023/07/25 12:32:20;;;;;;;7.10;2.70;;;;;;;;;;5103435;28;20110;-65
2023/07/25 12:34:46;;;;;;;5.75;2.25;;;;;;;;;;5093968;28;20373;-65
2023/07/25 12:37:11;;;;;;;5.40;2.37;;;;;;;;;;5096846;28;20028;-65
2023/07/25 12:39:36;;;;;;;6.63;3.03;;;;;;;;;;5100935;28;20302;-65
2023/07/25 12:42:02;;;;;;;6.57;2.25;;;;;;;;;;5104613;28;20405;-65
2023/07/25 12:44:27;;;;;;;8.75;2.70;;;;;;;;;;5100274;28;20105;-65
2023/07/25 12:46:52;;;;;;;4.97;2.57;;;;;;;;;;5106007;28;20028;-65
2023/07/25 12:49:17;;;;;;;6.70;2.20;;;;;;;;;;5104679;28;20282;-65
2023/07/25 12:51:43;;;;;;;7.13;2.83;;;;;;;;;;5106661;28;20481;-66
2023/07/25 12:54:08;;;;;;;8.23;3.13;;;;;;;;;;5110950;28;20129;-65
2023/07/25 12:56:33;;;;;;;7.57;3.05;;;;;;;;;;5103810;28;20262;-65
2023/07/25 12:58:58;;;;;;;4.47;2.00;;;;;;;;;;5107541;28;20024;-66
2023/07/25 13:01:24;;;;;;;4.97;2.47;;;;;;;;;;5108438;28;20265;-66
2023/07/25 13:03:49;;;;;;;6.47;2.35;;;;;;;;;;5107457;28;20020;-65
2023/07/25 13:06:14;;;;;;;5.72;2.03;;;;;;;;;;5104742;28;20401;-65
2023/07/25 13:08:39;;;;;;;6.93;2.53;;;;;;;;;;5106338;28;20015;-65
2023/07/25 13:11:05;;;;;;;5.80;2.30;;;;;;;;;;5101137;28;20281;-65
2023/07/25 13:13:30;;;;;;;5.68;2.03;;;;;;;;;;5112947;28;20443;-65
2023/07/25 13:15:55;;;;;;;5.65;2.00;;;;;;;;;;5112367;28;20525;-65
2023/07/25 13:18:21;;;;;;;5.03;2.10;;;;;;;;;;5111352;28;20034;-65
2023/07/25 13:20:46;;;;;;;6.10;2.08;;;;;;;;;;5113061;28;20123;-65
2023/07/25 13:23:13;;;;;;;4.20;1.77;;;;;;;;;;5100625;28;20031;-66
2023/07/25 13:25:39;;;;;;;3.38;1.50;;;;;;;;;;5099242;28;20023;-67
2023/07/25 13:28:04;;;;;;;3.50;1.08;;;;;;;;;;5111588;28;20390;-66
2023/07/25 13:30:30;;;;;;;4.10;1.60;;;;;;;;;;5108719;28;20490;-63
2023/07/25 13:32:55;;;;;;;5.32;1.63;;;;;;;;;;5105888;28;20031;-67
2023/07/25 13:35:20;;;;;;;3.45;1.33;;;;;;;;;;5101898;28;20165;-66
2023/07/25 13:37:47;;;;;;;6.13;1.20;;;;;;;;;;5100094;28;20023;-66
2023/07/25 13:40:12;;;;;;;6.75;1.60;;;;;;;;;;5101389;28;20282;-68
2023/07/25 13:42:38;;;;;;;3.13;1.30;;;;;;;;;;5108004;28;20034;-65
2023/07/25 13:45:03;;;;;;;3.25;1.13;;;;;;;;;;5113691;28;20020;-65
2023/07/25 13:47:29;;;;;;;2.78;0.90;;;;;;;;;;5108835;28;20041;-65
2023/07/25 13:49:55;;;;;;;4.10;1.37;;;;;;;;;;5110694;28;20094;-65
2023/07/25 13:52:20;;;;;;;7.45;1.60;;;;;;;;;;5107239;28;20265;-69
2023/07/25 13:54:46;;;;;;;3.17;1.50;;;;;;;;;;5099607;28;20078;-65
2023/07/25 13:57:11;;;;;;;2.63;1.00;;;;;;;;;;5102765;28;20027;-65
2023/07/25 13:59:37;;;;;;;3.80;1.30;;;;;;;;;;5101070;28;20390;-63
2023/07/25 14:02:03;;;;;;;4.10;1.55;;;;;;;;;;5101609;28;20031;-66
2023/07/25 14:04:28;;;;;;;5.07;1.70;;;;;;;;;;5107255;28;20119;-66
2023/07/25 14:06:53;;;;;;;3.03;1.17;;;;;;;;;;5108185;28;20190;-66
2023/07/25 14:09:21;;;;;;;4.10;1.48;;;;;;;;;;5105636;28;20026;-67
2023/07/25 14:11:47;;;;;;;3.45;1.27;;;;;;;;;;5103700;28;20042;-65
2023/07/25 14:14:12;;;;;;;4.55;1.65;;;;;;;;;;5111793;28;20028;-64
2023/07/25 14:16:37;;;;;;;3.95;1.45;;;;;;;;;;5108449;28;20076;-65
2023/07/25 14:19:02;;;;;;;5.90;1.38;;;;;;;;;;5109631;28;20028;-65
2023/07/25 14:21:28;;;;;;;3.55;1.42;;;;;;;;;;5107991;28;20023;-66
2023/07/25 14:23:53;;;;;;;2.92;1.20;;;;;;;;;;5099492;28;20485;-63
2023/07/25 14:26:18;;;;;;;4.38;1.15;;;;;;;;;;5100633;28;20031;-65
2023/07/25 14:28:44;;;;;;;2.93;1.03;;;;;;;;;;5101071;28;20024;-66